sensor_id;sensor_type;location;lat;lon;timestamp;noise_LAeq;noise_LA_min;noise_LA_max;noise_LA01;noise_LA95
76339;Laerm;26644;50.248;19.032;2023-05-10T00:02:19;49.47;44.87;66.17;;
76339;Laerm;26644;50.248;19.032;2023-05-10T00:05:23;50.24;44.57;59.90;;
76339;Laerm;26644;50.248;19.032;2023-05-10T00:08:28;49.56;44.96;62.87;;
76339;Laerm;26644;50.248;19.032;2023-05-10T00:11:33;49.57;44.93;57.18;;
76339;Laerm;26644;50.248;19.032;2023-05-10T00:14:38;47.91;44.13;57.63;;
76339;Laerm;26644;50.248;19.032;2023-05-10T00:17:45;49.62;45.16;58.63;;
76339;Laerm;26644;50.248;19.032;2023-05-10T00:20:50;49.66;45.16;56.54;;
76339;Laerm;26644;50.248;19.032;2023-05-10T00:23:55;47.82;43.39;55.20;;
76339;Laerm;26644;50.248;19.032;2023-05-10T00:27:00;48.85;44.70;53.88;;
76339;Laerm;26644;50.248;19.032;2023-05-10T00:30:07;47.84;43.36;52.18;;
76339;Laerm;26644;50.248;19.032;2023-05-10T00:33:15;48.98;44.47;55.40;;
76339;Laerm;26644;50.248;19.032;2023-05-10T00:36:19;48.27;43.37;53.88;;
76339;Laerm;26644;50.248;19.032;2023-05-10T00:39:25;48.96;45.15;53.44;;
76339;Laerm;26644;50.248;19.032;2023-05-10T00:42:30;48.82;44.88;54.10;;
76339;Laerm;26644;50.248;19.032;2023-05-10T00:45:37;47.69;42.59;56.26;;
76339;Laerm;26644;50.248;19.032;2023-05-10T00:48:46;48.84;45.40;53.37;;
76339;Laerm;26644;50.248;19.032;2023-05-10T00:51:52;48.05;44.20;52.08;;
76339;Laerm;26644;50.248;19.032;2023-05-10T00:54:57;49.14;44.13;59.36;;
76339;Laerm;26644;50.248;19.032;2023-05-10T00:58:02;47.48;43.68;51.86;;
76339;Laerm;26644;50.248;19.032;2023-05-10T01:01:08;47.27;42.49;53.30;;
76339;Laerm;26644;50.248;19.032;2023-05-10T01:04:18;47.62;41.51;52.55;;
76339;Laerm;26644;50.248;19.032;2023-05-10T01:07:26;48.47;43.92;53.04;;
76339;Laerm;26644;50.248;19.032;2023-05-10T01:10:32;48.34;45.21;52.02;;
76339;Laerm;26644;50.248;19.032;2023-05-10T01:13:42;49.55;45.11;54.06;;
76339;Laerm;26644;50.248;19.032;2023-05-10T01:16:49;47.92;43.66;52.54;;
76339;Laerm;26644;50.248;19.032;2023-05-10T01:19:58;47.74;43.59;51.92;;
76339;Laerm;26644;50.248;19.032;2023-05-10T01:23:39;48.41;44.61;52.70;;
76339;Laerm;26644;50.248;19.032;2023-05-10T01:31:18;49.61;45.02;54.23;;
76339;Laerm;26644;50.248;19.032;2023-05-10T01:34:42;50.15;46.15;54.35;;
76339;Laerm;26644;50.248;19.032;2023-05-10T01:38:03;48.91;43.23;53.52;;
76339;Laerm;26644;50.248;19.032;2023-05-10T01:41:19;49.50;45.07;53.58;;
76339;Laerm;26644;50.248;19.032;2023-05-10T01:44:37;50.16;46.73;55.14;;
76339;Laerm;26644;50.248;19.032;2023-05-10T01:47:51;49.71;45.57;54.83;;
76339;Laerm;26644;50.248;19.032;2023-05-10T01:51:01;49.23;45.11;58.62;;
76339;Laerm;26644;50.248;19.032;2023-05-10T01:54:13;49.75;45.10;57.04;;
76339;Laerm;26644;50.248;19.032;2023-05-10T01:57:22;49.43;45.19;55.67;;
76339;Laerm;26644;50.248;19.032;2023-05-10T02:00:33;49.55;46.03;53.76;;
76339;Laerm;26644;50.248;19.032;2023-05-10T02:03:40;49.64;45.87;54.30;;
76339;Laerm;26644;50.248;19.032;2023-05-10T02:06:54;49.80;45.04;53.81;;
76339;Laerm;26644;50.248;19.032;2023-05-10T02:10:02;49.83;45.27;54.51;;
76339;Laerm;26644;50.248;19.032;2023-05-10T02:13:11;49.72;46.25;53.87;;
76339;Laerm;26644;50.248;19.032;2023-05-10T02:16:23;51.07;46.87;55.78;;
76339;Laerm;26644;50.248;19.032;2023-05-10T02:19:32;50.82;46.75;55.78;;
76339;Laerm;26644;50.248;19.032;2023-05-10T02:22:43;51.07;47.31;58.59;;
76339;Laerm;26644;50.248;19.032;2023-05-10T02:25:54;50.47;47.14;53.96;;
76339;Laerm;26644;50.248;19.032;2023-05-10T02:29:00;51.18;47.62;55.46;;
76339;Laerm;26644;50.248;19.032;2023-05-10T02:32:11;51.05;46.51;55.62;;
76339;Laerm;26644;50.248;19.032;2023-05-10T02:35:16;51.12;47.59;56.39;;
76339;Laerm;26644;50.248;19.032;2023-05-10T02:38:26;51.74;47.91;56.93;;
76339;Laerm;26644;50.248;19.032;2023-05-10T02:41:33;52.01;47.93;58.01;;
76339;Laerm;26644;50.248;19.032;2023-05-10T02:44:41;52.07;47.27;57.06;;
76339;Laerm;26644;50.248;19.032;2023-05-10T02:47:47;51.23;46.95;56.08;;
76339;Laerm;26644;50.248;19.032;2023-05-10T02:51:03;52.22;47.96;63.59;;
76339;Laerm;26644;50.248;19.032;2023-05-10T02:54:18;51.89;48.54;63.27;;
76339;Laerm;26644;50.248;19.032;2023-05-10T02:57:31;51.99;47.55;64.95;;
76339;Laerm;26644;50.248;19.032;2023-05-10T03:00:36;51.58;47.71;63.20;;
76339;Laerm;26644;50.248;19.032;2023-05-10T03:03:42;51.49;48.41;56.81;;
76339;Laerm;26644;50.248;19.032;2023-05-10T03:06:47;53.57;49.27;74.49;;
76339;Laerm;26644;50.248;19.032;2023-05-10T03:09:55;52.75;49.89;58.99;;
76339;Laerm;26644;50.248;19.032;2023-05-10T03:13:14;52.54;48.33;56.70;;
76339;Laerm;26644;50.248;19.032;2023-05-10T03:16:30;53.58;49.95;58.07;;
76339;Laerm;26644;50.248;19.032;2023-05-10T03:19:48;53.64;50.57;60.20;;
76339;Laerm;26644;50.248;19.032;2023-05-10T03:23:04;54.21;50.85;67.94;;
76339;Laerm;26644;50.248;19.032;2023-05-10T03:26:20;54.14;50.99;60.15;;
76339;Laerm;26644;50.248;19.032;2023-05-10T03:29:36;53.67;50.49;63.29;;
76339;Laerm;26644;50.248;19.032;2023-05-10T03:32:42;54.38;50.64;69.75;;
76339;Laerm;26644;50.248;19.032;2023-05-10T03:35:47;58.04;51.00;72.21;;
76339;Laerm;26644;50.248;19.032;2023-05-10T03:38:52;54.99;51.82;59.59;;
76339;Laerm;26644;50.248;19.032;2023-05-10T03:42:00;54.60;51.47;65.05;;
76339;Laerm;26644;50.248;19.032;2023-05-10T03:45:08;56.32;51.37;71.68;;
76339;Laerm;26644;50.248;19.032;2023-05-10T03:48:13;54.35;50.89;60.71;;
76339;Laerm;26644;50.248;19.032;2023-05-10T03:51:18;54.29;51.01;57.26;;
76339;Laerm;26644;50.248;19.032;2023-05-10T03:54:24;54.73;51.81;57.65;;
76339;Laerm;26644;50.248;19.032;2023-05-10T03:57:31;54.50;50.33;60.11;;
76339;Laerm;26644;50.248;19.032;2023-05-10T04:00:37;54.33;50.48;58.26;;
76339;Laerm;26644;50.248;19.032;2023-05-10T04:03:45;54.80;51.36;66.54;;
76339;Laerm;26644;50.248;19.032;2023-05-10T04:06:51;55.06;51.72;61.85;;
76339;Laerm;26644;50.248;19.032;2023-05-10T04:09:56;55.40;51.83;67.41;;
76339;Laerm;26644;50.248;19.032;2023-05-10T04:13:04;54.21;51.63;61.51;;
76339;Laerm;26644;50.248;19.032;2023-05-10T04:16:09;55.27;52.17;65.31;;
76339;Laerm;26644;50.248;19.032;2023-05-10T04:19:14;55.22;52.11;60.74;;
76339;Laerm;26644;50.248;19.032;2023-05-10T04:22:18;55.67;52.43;63.72;;
76339;Laerm;26644;50.248;19.032;2023-05-10T04:25:24;55.35;52.75;58.68;;
76339;Laerm;26644;50.248;19.032;2023-05-10T04:28:31;55.02;52.39;60.13;;
76339;Laerm;26644;50.248;19.032;2023-05-10T04:31:36;55.30;52.25;61.12;;
76339;Laerm;26644;50.248;19.032;2023-05-10T04:34:40;55.09;52.31;61.04;;
76339;Laerm;26644;50.248;19.032;2023-05-10T04:37:45;55.52;51.88;66.12;;
76339;Laerm;26644;50.248;19.032;2023-05-10T04:40:50;55.18;51.68;60.82;;
76339;Laerm;26644;50.248;19.032;2023-05-10T04:43:58;55.19;52.40;59.71;;
76339;Laerm;26644;50.248;19.032;2023-05-10T04:47:03;56.47;51.76;65.21;;
76339;Laerm;26644;50.248;19.032;2023-05-10T04:50:09;55.15;51.57;61.06;;
76339;Laerm;26644;50.248;19.032;2023-05-10T04:53:13;55.23;52.01;65.34;;
76339;Laerm;26644;50.248;19.032;2023-05-10T04:56:18;54.75;51.55;58.06;;
76339;Laerm;26644;50.248;19.032;2023-05-10T04:59:25;55.05;51.98;58.35;;
76339;Laerm;26644;50.248;19.032;2023-05-10T05:02:31;54.65;51.71;64.53;;
76339;Laerm;26644;50.248;19.032;2023-05-10T05:05:35;54.88;51.69;58.82;;
76339;Laerm;26644;50.248;19.032;2023-05-10T05:08:40;54.88;51.56;61.82;;
76339;Laerm;26644;50.248;19.032;2023-05-10T05:11:45;54.79;51.90;64.10;;
76339;Laerm;26644;50.248;19.032;2023-05-10T05:14:53;55.42;52.61;63.79;;
76339;Laerm;26644;50.248;19.032;2023-05-10T05:17:58;55.03;51.79;63.10;;
76339;Laerm;26644;50.248;19.032;2023-05-10T05:21:03;54.57;51.81;58.70;;
76339;Laerm;26644;50.248;19.032;2023-05-10T05:24:08;54.91;51.95;64.79;;
76339;Laerm;26644;50.248;19.032;2023-05-10T05:27:14;55.43;51.88;64.28;;
76339;Laerm;26644;50.248;19.032;2023-05-10T05:30:21;54.79;51.60;61.45;;
76339;Laerm;26644;50.248;19.032;2023-05-10T05:33:27;55.14;51.75;65.60;;
76339;Laerm;26644;50.248;19.032;2023-05-10T05:36:31;56.65;51.91;77.20;;
76339;Laerm;26644;50.248;19.032;2023-05-10T05:39:37;54.33;51.22;64.39;;
76339;Laerm;26644;50.248;19.032;2023-05-10T05:42:41;55.21;50.28;74.13;;
76339;Laerm;26644;50.248;19.032;2023-05-10T05:45:49;54.72;50.90;68.03;;
76339;Laerm;26644;50.248;19.032;2023-05-10T05:48:56;55.01;50.17;68.82;;
76339;Laerm;26644;50.248;19.032;2023-05-10T05:52:02;54.56;51.47;62.48;;
76339;Laerm;26644;50.248;19.032;2023-05-10T05:55:07;55.02;51.28;66.46;;
76339;Laerm;26644;50.248;19.032;2023-05-10T05:58:13;54.92;51.71;67.97;;
76339;Laerm;26644;50.248;19.032;2023-05-10T06:01:20;54.50;51.03;63.40;;
76339;Laerm;26644;50.248;19.032;2023-05-10T06:04:25;53.90;50.53;61.97;;
76339;Laerm;26644;50.248;19.032;2023-05-10T06:07:30;54.51;50.36;71.43;;
76339;Laerm;26644;50.248;19.032;2023-05-10T06:10:35;54.57;51.10;62.37;;
76339;Laerm;26644;50.248;19.032;2023-05-10T06:13:42;54.11;50.96;63.64;;
76339;Laerm;26644;50.248;19.032;2023-05-10T06:16:51;54.57;50.67;62.99;;
76339;Laerm;26644;50.248;19.032;2023-05-10T06:19:56;53.68;49.75;62.37;;
76339;Laerm;26644;50.248;19.032;2023-05-10T06:23:01;57.64;50.22;71.75;;
76339;Laerm;26644;50.248;19.032;2023-05-10T06:26:06;55.39;50.67;68.08;;
76339;Laerm;26644;50.248;19.032;2023-05-10T06:29:11;54.09;50.18;63.11;;
76339;Laerm;26644;50.248;19.032;2023-05-10T06:32:19;54.56;50.42;64.71;;
76339;Laerm;26644;50.248;19.032;2023-05-10T06:35:24;54.71;51.37;67.64;;
76339;Laerm;26644;50.248;19.032;2023-05-10T06:38:29;55.15;51.06;74.54;;
76339;Laerm;26644;50.248;19.032;2023-05-10T06:41:34;54.32;50.58;62.71;;
76339;Laerm;26644;50.248;19.032;2023-05-10T06:44:38;54.68;50.38;62.17;;
76339;Laerm;26644;50.248;19.032;2023-05-10T06:47:46;55.60;51.59;69.94;;
76339;Laerm;26644;50.248;19.032;2023-05-10T06:50:51;54.14;49.68;74.22;;
76339;Laerm;26644;50.248;19.032;2023-05-10T06:53:56;53.81;49.85;69.18;;
76339;Laerm;26644;50.248;19.032;2023-05-10T06:57:00;54.65;51.03;63.42;;
76339;Laerm;26644;50.248;19.032;2023-05-10T07:00:08;53.76;50.77;62.73;;
76339;Laerm;26644;50.248;19.032;2023-05-10T07:03:16;54.16;50.70;60.86;;
76339;Laerm;26644;50.248;19.032;2023-05-10T07:06:21;53.69;50.47;75.31;;
76339;Laerm;26644;50.248;19.032;2023-05-10T07:09:25;54.51;50.21;70.34;;
76339;Laerm;26644;50.248;19.032;2023-05-10T07:12:30;55.93;51.28;70.14;;
76339;Laerm;26644;50.248;19.032;2023-05-10T07:15:35;55.97;50.26;69.90;;
76339;Laerm;26644;50.248;19.032;2023-05-10T07:18:43;53.77;49.95;63.94;;
76339;Laerm;26644;50.248;19.032;2023-05-10T07:21:48;54.19;50.75;64.27;;
76339;Laerm;26644;50.248;19.032;2023-05-10T07:24:54;54.73;51.23;66.93;;
76339;Laerm;26644;50.248;19.032;2023-05-10T07:27:58;53.27;49.58;65.47;;
76339;Laerm;26644;50.248;19.032;2023-05-10T07:31:03;53.77;49.62;65.68;;
76339;Laerm;26644;50.248;19.032;2023-05-10T07:34:10;53.70;50.44;59.64;;
76339;Laerm;26644;50.248;19.032;2023-05-10T07:37:15;54.79;50.93;65.31;;
76339;Laerm;26644;50.248;19.032;2023-05-10T07:40:20;54.33;50.43;69.84;;
76339;Laerm;26644;50.248;19.032;2023-05-10T07:43:25;55.39;50.97;76.50;;
76339;Laerm;26644;50.248;19.032;2023-05-10T07:46:30;55.57;51.12;73.59;;
76339;Laerm;26644;50.248;19.032;2023-05-10T07:49:38;56.23;50.28;73.40;;
76339;Laerm;26644;50.248;19.032;2023-05-10T07:52:42;56.39;51.41;77.59;;
76339;Laerm;26644;50.248;19.032;2023-05-10T07:55:50;57.67;51.82;82.39;;
76339;Laerm;26644;50.248;19.032;2023-05-10T07:58:56;56.87;51.54;79.79;;
76339;Laerm;26644;50.248;19.032;2023-05-10T08:02:01;58.16;49.78;77.97;;
76339;Laerm;26644;50.248;19.032;2023-05-10T08:05:09;57.71;51.89;74.55;;
76339;Laerm;26644;50.248;19.032;2023-05-10T08:08:14;58.31;52.32;77.86;;
76339;Laerm;26644;50.248;19.032;2023-05-10T08:11:19;59.23;52.70;76.05;;
76339;Laerm;26644;50.248;19.032;2023-05-10T08:14:25;58.22;50.15;77.21;;
76339;Laerm;26644;50.248;19.032;2023-05-10T08:17:30;55.94;51.84;73.97;;
76339;Laerm;26644;50.248;19.032;2023-05-10T08:20:37;56.50;52.50;73.92;;
76339;Laerm;26644;50.248;19.032;2023-05-10T08:23:42;56.71;50.23;75.27;;
76339;Laerm;26644;50.248;19.032;2023-05-10T08:26:48;58.84;51.45;80.35;;
76339;Laerm;26644;50.248;19.032;2023-05-10T08:29:53;58.27;52.30;78.72;;
76339;Laerm;26644;50.248;19.032;2023-05-10T08:32:58;58.36;50.77;77.96;;
76339;Laerm;26644;50.248;19.032;2023-05-10T08:36:05;57.23;52.63;74.07;;
76339;Laerm;26644;50.248;19.032;2023-05-10T08:39:11;61.20;51.37;84.80;;
76339;Laerm;26644;50.248;19.032;2023-05-10T08:42:22;55.05;50.46;70.29;;
76339;Laerm;26644;50.248;19.032;2023-05-10T08:45:33;54.46;51.14;63.42;;
76339;Laerm;26644;50.248;19.032;2023-05-10T08:48:42;56.68;50.86;73.21;;
76339;Laerm;26644;50.248;19.032;2023-05-10T08:51:54;56.36;52.01;75.80;;
76339;Laerm;26644;50.248;19.032;2023-05-10T08:55:00;54.90;51.29;68.69;;
76339;Laerm;26644;50.248;19.032;2023-05-10T08:58:06;56.18;50.80;74.57;;
76339;Laerm;26644;50.248;19.032;2023-05-10T09:01:12;60.20;51.53;84.97;;
76339;Laerm;26644;50.248;19.032;2023-05-10T09:04:20;60.43;51.98;79.05;;
76339;Laerm;26644;50.248;19.032;2023-05-10T09:07:28;60.59;51.05;78.14;;
76339;Laerm;26644;50.248;19.032;2023-05-10T09:10:33;57.06;50.59;75.21;;
76339;Laerm;26644;50.248;19.032;2023-05-10T09:13:38;55.66;50.64;71.37;;
76339;Laerm;26644;50.248;19.032;2023-05-10T09:16:44;57.87;51.08;77.56;;
76339;Laerm;26644;50.248;19.032;2023-05-10T09:19:48;55.33;50.72;74.97;;
76339;Laerm;26644;50.248;19.032;2023-05-10T09:22:56;60.88;52.21;84.46;;
76339;Laerm;26644;50.248;19.032;2023-05-10T09:26:05;56.64;51.03;68.37;;
76339;Laerm;26644;50.248;19.032;2023-05-10T09:29:11;54.84;51.59;65.62;;
76339;Laerm;26644;50.248;19.032;2023-05-10T09:32:15;57.09;49.48;74.90;;
76339;Laerm;26644;50.248;19.032;2023-05-10T09:35:24;55.16;50.10;72.33;;
76339;Laerm;26644;50.248;19.032;2023-05-10T09:38:45;57.42;50.28;77.50;;
76339;Laerm;26644;50.248;19.032;2023-05-10T09:41:51;54.53;50.60;63.87;;
76339;Laerm;26644;50.248;19.032;2023-05-10T09:45:01;58.86;50.81;84.72;;
76339;Laerm;26644;50.248;19.032;2023-05-10T09:48:07;54.41;49.83;67.18;;
76339;Laerm;26644;50.248;19.032;2023-05-10T09:51:19;54.47;50.35;71.71;;
76339;Laerm;26644;50.248;19.032;2023-05-10T09:54:27;55.52;51.09;70.07;;
76339;Laerm;26644;50.248;19.032;2023-05-10T09:57:31;55.40;51.46;62.81;;
76339;Laerm;26644;50.248;19.032;2023-05-10T10:00:39;62.84;51.94;82.84;;
76339;Laerm;26644;50.248;19.032;2023-05-10T10:03:45;56.58;51.28;73.42;;
76339;Laerm;26644;50.248;19.032;2023-05-10T10:07:00;60.39;50.61;82.45;;
76339;Laerm;26644;50.248;19.032;2023-05-10T10:10:09;54.30;50.05;70.99;;
76339;Laerm;26644;50.248;19.032;2023-05-10T10:13:16;56.13;50.44;76.25;;
76339;Laerm;26644;50.248;19.032;2023-05-10T10:16:21;59.22;49.36;83.88;;
76339;Laerm;26644;50.248;19.032;2023-05-10T10:19:26;56.80;51.99;77.68;;
76339;Laerm;26644;50.248;19.032;2023-05-10T10:22:31;61.54;49.62;85.07;;
76339;Laerm;26644;50.248;19.032;2023-05-10T10:25:39;55.00;49.41;72.93;;
76339;Laerm;26644;50.248;19.032;2023-05-10T10:29:00;56.14;50.31;79.40;;
76339;Laerm;26644;50.248;19.032;2023-05-10T10:32:27;54.53;48.44;75.02;;
76339;Laerm;26644;50.248;19.032;2023-05-10T10:35:36;56.43;51.36;67.87;;
76339;Laerm;26644;50.248;19.032;2023-05-10T10:39:09;53.95;49.74;71.85;;
76339;Laerm;26644;50.248;19.032;2023-05-10T10:42:47;53.96;50.69;62.02;;
76339;Laerm;26644;50.248;19.032;2023-05-10T10:46:11;55.78;50.78;73.18;;
76339;Laerm;26644;50.248;19.032;2023-05-10T10:49:17;55.75;51.53;66.94;;
76339;Laerm;26644;50.248;19.032;2023-05-10T10:52:25;55.64;50.97;73.27;;
76339;Laerm;26644;50.248;19.032;2023-05-10T10:55:32;57.06;51.42;73.68;;
76339;Laerm;26644;50.248;19.032;2023-05-10T10:58:42;54.55;49.66;70.41;;
76339;Laerm;26644;50.248;19.032;2023-05-10T11:01:53;57.35;51.46;78.24;;
76339;Laerm;26644;50.248;19.032;2023-05-10T11:04:58;54.80;48.69;72.79;;
76339;Laerm;26644;50.248;19.032;2023-05-10T11:08:14;54.06;49.57;62.81;;
76339;Laerm;26644;50.248;19.032;2023-05-10T11:11:19;53.63;49.64;65.24;;
76339;Laerm;26644;50.248;19.032;2023-05-10T11:14:27;57.85;50.71;82.97;;
76339;Laerm;26644;50.248;19.032;2023-05-10T11:17:35;53.61;49.78;65.21;;
76339;Laerm;26644;50.248;19.032;2023-05-10T11:20:40;54.37;50.55;65.38;;
76339;Laerm;26644;50.248;19.032;2023-05-10T11:23:50;56.29;50.65;71.81;;
76339;Laerm;26644;50.248;19.032;2023-05-10T11:26:58;56.27;49.92;74.10;;
76339;Laerm;26644;50.248;19.032;2023-05-10T11:30:11;55.37;50.65;67.37;;
76339;Laerm;26644;50.248;19.032;2023-05-10T11:33:17;57.27;51.36;79.43;;
76339;Laerm;26644;50.248;19.032;2023-05-10T11:36:26;55.73;50.40;74.15;;
76339;Laerm;26644;50.248;19.032;2023-05-10T11:39:32;54.07;49.33;67.64;;
76339;Laerm;26644;50.248;19.032;2023-05-10T11:42:38;53.68;49.57;66.26;;
76339;Laerm;26644;50.248;19.032;2023-05-10T11:45:45;54.40;50.60;63.47;;
76339;Laerm;26644;50.248;19.032;2023-05-10T11:48:54;57.22;51.65;77.00;;
76339;Laerm;26644;50.248;19.032;2023-05-10T11:52:05;56.55;50.62;66.34;;
76339;Laerm;26644;50.248;19.032;2023-05-10T11:55:12;55.71;50.17;69.56;;
76339;Laerm;26644;50.248;19.032;2023-05-10T11:58:18;55.49;49.70;65.69;;
76339;Laerm;26644;50.248;19.032;2023-05-10T12:01:29;56.61;51.32;66.43;;
76339;Laerm;26644;50.248;19.032;2023-05-10T12:04:33;58.55;52.05;75.32;;
76339;Laerm;26644;50.248;19.032;2023-05-10T12:07:39;54.30;50.17;69.52;;
76339;Laerm;26644;50.248;19.032;2023-05-10T12:10:43;54.57;50.61;68.65;;
76339;Laerm;26644;50.248;19.032;2023-05-10T12:13:48;55.47;51.69;64.67;;
76339;Laerm;26644;50.248;19.032;2023-05-10T12:16:57;57.98;52.34;76.76;;
76339;Laerm;26644;50.248;19.032;2023-05-10T12:20:17;55.75;51.79;70.43;;
76339;Laerm;26644;50.248;19.032;2023-05-10T12:23:21;55.26;51.45;66.23;;
76339;Laerm;26644;50.248;19.032;2023-05-10T12:26:28;53.95;49.61;69.90;;
76339;Laerm;26644;50.248;19.032;2023-05-10T12:29:33;57.69;50.37;78.78;;
76339;Laerm;26644;50.248;19.032;2023-05-10T12:32:43;56.69;51.45;76.41;;
76339;Laerm;26644;50.248;19.032;2023-05-10T12:35:50;60.29;51.75;87.51;;
76339;Laerm;26644;50.248;19.032;2023-05-10T12:39:03;56.16;51.83;70.70;;
76339;Laerm;26644;50.248;19.032;2023-05-10T12:42:07;55.89;51.95;68.00;;
76339;Laerm;26644;50.248;19.032;2023-05-10T12:45:13;56.98;51.61;77.13;;
76339;Laerm;26644;50.248;19.032;2023-05-10T12:48:20;56.90;51.16;74.07;;
76339;Laerm;26644;50.248;19.032;2023-05-10T12:51:25;58.01;51.78;74.49;;
76339;Laerm;26644;50.248;19.032;2023-05-10T12:54:30;54.77;50.86;65.38;;
76339;Laerm;26644;50.248;19.032;2023-05-10T12:57:35;56.13;52.02;70.47;;
76339;Laerm;26644;50.248;19.032;2023-05-10T13:00:39;57.22;51.29;75.39;;
76339;Laerm;26644;50.248;19.032;2023-05-10T13:03:48;56.45;51.27;69.80;;
76339;Laerm;26644;50.248;19.032;2023-05-10T13:06:53;54.94;50.73;63.88;;
76339;Laerm;26644;50.248;19.032;2023-05-10T13:10:00;54.14;51.03;62.39;;
76339;Laerm;26644;50.248;19.032;2023-05-10T13:13:05;54.68;50.95;63.84;;
76339;Laerm;26644;50.248;19.032;2023-05-10T13:16:10;54.60;50.86;68.13;;
76339;Laerm;26644;50.248;19.032;2023-05-10T13:19:17;53.96;50.35;63.32;;
76339;Laerm;26644;50.248;19.032;2023-05-10T13:22:23;54.26;49.50;69.90;;
76339;Laerm;26644;50.248;19.032;2023-05-10T13:25:27;54.72;50.72;64.62;;
76339;Laerm;26644;50.248;19.032;2023-05-10T13:28:33;55.57;51.40;75.63;;
76339;Laerm;26644;50.248;19.032;2023-05-10T13:31:37;54.80;51.04;65.49;;
76339;Laerm;26644;50.248;19.032;2023-05-10T13:34:45;55.09;50.97;62.79;;
76339;Laerm;26644;50.248;19.032;2023-05-10T13:37:49;54.72;51.37;67.41;;
76339;Laerm;26644;50.248;19.032;2023-05-10T13:40:55;54.81;50.91;68.37;;
76339;Laerm;26644;50.248;19.032;2023-05-10T13:43:59;53.77;49.18;67.80;;
76339;Laerm;26644;50.248;19.032;2023-05-10T13:47:05;56.62;50.13;73.12;;
76339;Laerm;26644;50.248;19.032;2023-05-10T13:50:12;56.66;52.01;72.27;;
76339;Laerm;26644;50.248;19.032;2023-05-10T13:53:17;58.39;49.34;70.21;;
76339;Laerm;26644;50.248;19.032;2023-05-10T13:56:22;58.60;50.74;74.80;;
76339;Laerm;26644;50.248;19.032;2023-05-10T13:59:29;56.09;50.57;71.02;;
76339;Laerm;26644;50.248;19.032;2023-05-10T14:02:34;54.57;50.19;70.51;;
76339;Laerm;26644;50.248;19.032;2023-05-10T14:05:42;55.73;50.77;67.09;;
76339;Laerm;26644;50.248;19.032;2023-05-10T14:08:46;55.32;51.57;70.80;;
76339;Laerm;26644;50.248;19.032;2023-05-10T14:11:52;54.83;50.05;70.59;;
76339;Laerm;26644;50.248;19.032;2023-05-10T14:14:57;53.78;49.52;66.01;;
76339;Laerm;26644;50.248;19.032;2023-05-10T14:18:02;53.76;49.82;64.34;;
76339;Laerm;26644;50.248;19.032;2023-05-10T14:21:09;53.65;50.53;66.20;;
76339;Laerm;26644;50.248;19.032;2023-05-10T14:24:15;53.18;49.77;60.05;;
76339;Laerm;26644;50.248;19.032;2023-05-10T14:27:19;53.03;48.98;68.50;;
76339;Laerm;26644;50.248;19.032;2023-05-10T14:30:25;53.10;49.38;68.70;;
76339;Laerm;26644;50.248;19.032;2023-05-10T14:33:29;55.33;50.66;74.40;;
76339;Laerm;26644;50.248;19.032;2023-05-10T14:36:37;54.83;51.17;68.76;;
76339;Laerm;26644;50.248;19.032;2023-05-10T14:39:42;53.89;48.19;73.70;;
76339;Laerm;26644;50.248;19.032;2023-05-10T14:42:47;53.38;48.74;64.52;;
76339;Laerm;26644;50.248;19.032;2023-05-10T14:45:51;56.29;51.25;71.77;;
76339;Laerm;26644;50.248;19.032;2023-05-10T14:48:57;56.82;49.99;77.97;;
76339;Laerm;26644;50.248;19.032;2023-05-10T14:52:04;54.74;50.14;68.86;;
76339;Laerm;26644;50.248;19.032;2023-05-10T14:55:09;54.29;49.91;72.13;;
76339;Laerm;26644;50.248;19.032;2023-05-10T14:58:14;53.48;49.18;61.89;;
76339;Laerm;26644;50.248;19.032;2023-05-10T15:01:19;54.29;49.96;70.31;;
76339;Laerm;26644;50.248;19.032;2023-05-10T15:04:24;54.70;51.46;64.24;;
76339;Laerm;26644;50.248;19.032;2023-05-10T15:07:32;54.28;49.85;65.99;;
76339;Laerm;26644;50.248;19.032;2023-05-10T15:10:36;54.10;50.36;66.43;;
76339;Laerm;26644;50.248;19.032;2023-05-10T15:13:41;54.52;50.73;61.16;;
76339;Laerm;26644;50.248;19.032;2023-05-10T15:16:46;55.07;50.73;66.06;;
76339;Laerm;26644;50.248;19.032;2023-05-10T15:19:51;54.00;49.37;61.81;;
76339;Laerm;26644;50.248;19.032;2023-05-10T15:22:59;53.03;49.62;63.52;;
76339;Laerm;26644;50.248;19.032;2023-05-10T15:26:05;52.53;48.91;58.88;;
76339;Laerm;26644;50.248;19.032;2023-05-10T15:29:09;53.38;50.05;59.35;;
76339;Laerm;26644;50.248;19.032;2023-05-10T15:32:21;54.87;50.42;64.00;;
76339;Laerm;26644;50.248;19.032;2023-05-10T15:35:26;54.77;49.83;71.14;;
76339;Laerm;26644;50.248;19.032;2023-05-10T15:38:36;53.88;50.48;63.55;;
76339;Laerm;26644;50.248;19.032;2023-05-10T15:41:41;53.99;49.74;67.95;;
76339;Laerm;26644;50.248;19.032;2023-05-10T15:44:47;54.05;49.69;63.96;;
76339;Laerm;26644;50.248;19.032;2023-05-10T15:47:51;54.60;50.18;64.20;;
76339;Laerm;26644;50.248;19.032;2023-05-10T15:50:56;52.72;49.32;62.20;;
76339;Laerm;26644;50.248;19.032;2023-05-10T15:54:04;53.84;50.39;68.19;;
76339;Laerm;26644;50.248;19.032;2023-05-10T15:57:10;55.70;50.32;70.17;;
76339;Laerm;26644;50.248;19.032;2023-05-10T16:00:16;54.22;50.56;64.64;;
76339;Laerm;26644;50.248;19.032;2023-05-10T16:03:21;54.65;50.17;72.58;;
76339;Laerm;26644;50.248;19.032;2023-05-10T16:06:25;57.43;51.16;78.96;;
76339;Laerm;26644;50.248;19.032;2023-05-10T16:09:33;56.43;51.44;76.56;;
76339;Laerm;26644;50.248;19.032;2023-05-10T16:12:38;54.72;50.98;66.70;;
76339;Laerm;26644;50.248;19.032;2023-05-10T16:15:44;55.65;51.17;74.39;;
76339;Laerm;26644;50.248;19.032;2023-05-10T16:18:48;54.28;49.85;68.28;;
76339;Laerm;26644;50.248;19.032;2023-05-10T16:21:54;53.79;49.81;70.08;;
76339;Laerm;26644;50.248;19.032;2023-05-10T16:25:01;53.43;50.19;59.00;;
76339;Laerm;26644;50.248;19.032;2023-05-10T16:28:07;55.01;50.24;67.17;;
76339;Laerm;26644;50.248;19.032;2023-05-10T16:31:11;54.29;49.91;65.51;;
76339;Laerm;26644;50.248;19.032;2023-05-10T16:34:16;55.00;50.85;63.75;;
76339;Laerm;26644;50.248;19.032;2023-05-10T16:37:24;55.42;50.24;69.92;;
76339;Laerm;26644;50.248;19.032;2023-05-10T16:40:32;54.69;50.61;66.37;;
76339;Laerm;26644;50.248;19.032;2023-05-10T16:43:37;54.22;50.79;60.76;;
76339;Laerm;26644;50.248;19.032;2023-05-10T16:46:42;54.02;50.37;65.58;;
76339;Laerm;26644;50.248;19.032;2023-05-10T16:49:47;53.97;49.25;63.22;;
76339;Laerm;26644;50.248;19.032;2023-05-10T16:52:52;53.89;50.57;64.06;;
76339;Laerm;26644;50.248;19.032;2023-05-10T16:55:59;54.53;50.73;68.20;;
76339;Laerm;26644;50.248;19.032;2023-05-10T16:59:04;56.78;50.25;69.58;;
76339;Laerm;26644;50.248;19.032;2023-05-10T17:02:09;53.82;50.56;61.21;;
76339;Laerm;26644;50.248;19.032;2023-05-10T17:05:14;53.50;49.82;66.53;;
76339;Laerm;26644;50.248;19.032;2023-05-10T17:08:20;53.76;50.65;62.26;;
76339;Laerm;26644;50.248;19.032;2023-05-10T17:11:28;54.79;50.07;67.72;;
76339;Laerm;26644;50.248;19.032;2023-05-10T17:14:33;55.39;50.59;69.73;;
76339;Laerm;26644;50.248;19.032;2023-05-10T17:17:38;55.55;50.71;76.63;;